مكة, السعودية

11:42 AM AST on أمتèبر 21, 2014 (GMT +0300)
Makkah | Change Station
CLOSE
Current Station
Airport
Location: Makkah,
Elevation: 1211 ft
Nearby Weather Stations

Elev 1211 ft 21.44 °N, 40.00 °E | Updated 42 minutes ago

Clear
صافية
97 °F
Feels Like 105 °F
N
0
ريح متغير ريح from شمال

هذا اليوم
High -- | Low -- °F
--% Chance of Precip.
Yesterday
High -- | Low -- °F
Precip. -- في
6:18 AM 5:51 PM
الهلال الأخير, 6% visible
الضغط 29.89 في
وضوح الرؤية -9999.0 أميال
سحابات
مؤشر الحرارة 105 °F
نقطة الندى 72 °F
الرطوبة 44%
Rainfall 0.00 في
عمق الثلج Not available.
الأشعة فوق البنفسجية Not available.
Pollen Not available.
جودة الهواء Not available.
Flu Activity Not available.
METAR OEMK 210800Z 00000KT CAVOK 36/22 Q1012

More Conditions Fewer Conditions

الضغط 29.89 في
وضوح الرؤية -9999.0 أميال
سحابات
مؤشر الحرارة 105 °F
نقطة الندى 72 °F
الرطوبة 44%
Rainfall 0.00 في
عمق الثلج Not available.
الأشعة فوق البنفسجية Not available.
Pollen Not available.
جودة الهواء Not available.
Flu Activity Not available.
METAR OEMK 210800Z 00000KT CAVOK 36/22 Q1012

More Conditions Fewer Conditions

10-Day Weather Forecast

Almanac

علم الفلك

Oct. 21, 2014 Rise Set
Actual Time 6:18 AM AST 5:51 PM AST
Civil Twilight 5:56 AM AST 6:14 PM AST
Nautical Twilight 5:30 AM AST 6:40 PM AST
Astronomical Twilight 5:04 AM AST 7:06 PM AST
قمر 4:01 AM AST 4:19 PM AST
Length Of Visible Light 12h 18m
طول الیوم
11h 33m
Tomorrow will be 1m 9s shorter.
الهلال الأخير, 6% of the Moon is Illuminated
هذا اليوم
الهلال الأخير
Oct 23
New
Oct 30
الربع الاول
Nov 6
بدر
Nov 14
الربع الآخر

Yesterday's Extremes

Country Highs Country Lows

Community

WunderPhotos

Upload Photos

1,763,619 photos uploaded!

Nearby

جودة الهواء

Not available.

عمق الثلج

Not available.

Earthquake Activity

City Distance Mag. Time & Date
No recent earthquake activity has been reported nearby.
Minimum magnitude displayed is 2.5.

Coastal Water Temperatures

مكان درجات الحرارة
No Stations Reporting

Nearby Weather Stations